sensor_id;sensor_type;location;lat;lon;timestamp;temperature;humidity
7411;DHT22;3747;48.628;9.058;2023-06-01T00:02:01;11.20;96.00
7411;DHT22;3747;48.628;9.058;2023-06-01T00:04:27;11.10;95.70
7411;DHT22;3747;48.628;9.058;2023-06-01T00:06:54;11.00;95.90
7411;DHT22;3747;48.628;9.058;2023-06-01T00:09:21;11.00;95.90
7411;DHT22;3747;48.628;9.058;2023-06-01T00:11:49;11.00;96.30
7411;DHT22;3747;48.628;9.058;2023-06-01T00:14:16;11.00;96.80
7411;DHT22;3747;48.628;9.058;2023-06-01T00:16:44;11.00;97.00
7411;DHT22;3747;48.628;9.058;2023-06-01T00:19:11;11.10;96.60
7411;DHT22;3747;48.628;9.058;2023-06-01T00:21:38;11.10;96.50
7411;DHT22;3747;48.628;9.058;2023-06-01T00:24:05;11.10;96.40
7411;DHT22;3747;48.628;9.058;2023-06-01T00:26:32;11.00;96.30
7411;DHT22;3747;48.628;9.058;2023-06-01T00:29:00;11.00;96.40
7411;DHT22;3747;48.628;9.058;2023-06-01T00:31:27;11.10;96.70
7411;DHT22;3747;48.628;9.058;2023-06-01T00:33:54;11.10;97.30
7411;DHT22;3747;48.628;9.058;2023-06-01T00:36:21;11.10;97.60
7411;DHT22;3747;48.628;9.058;2023-06-01T00:38:47;11.40;97.00
7411;DHT22;3747;48.628;9.058;2023-06-01T00:41:14;11.50;96.60
7411;DHT22;3747;48.628;9.058;2023-06-01T00:43:41;11.50;96.90
7411;DHT22;3747;48.628;9.058;2023-06-01T00:46:09;11.50;96.70
7411;DHT22;3747;48.628;9.058;2023-06-01T00:48:37;11.40;97.30
7411;DHT22;3747;48.628;9.058;2023-06-01T00:51:04;11.40;97.60
7411;DHT22;3747;48.628;9.058;2023-06-01T00:53:31;11.30;97.80
7411;DHT22;3747;48.628;9.058;2023-06-01T00:55:57;11.30;97.80
7411;DHT22;3747;48.628;9.058;2023-06-01T00:58:24;11.50;97.10
7411;DHT22;3747;48.628;9.058;2023-06-01T01:00:51;11.50;96.80
7411;DHT22;3747;48.628;9.058;2023-06-01T01:03:20;11.60;96.50
7411;DHT22;3747;48.628;9.058;2023-06-01T01:05:47;12.00;95.80
7411;DHT22;3747;48.628;9.058;2023-06-01T01:08:21;12.10;95.40
7411;DHT22;3747;48.628;9.058;2023-06-01T01:10:59;12.20;95.10
7411;DHT22;3747;48.628;9.058;2023-06-01T01:13:29;12.20;95.40
7411;DHT22;3747;48.628;9.058;2023-06-01T01:16:02;12.30;95.00
7411;DHT22;3747;48.628;9.058;2023-06-01T01:18:36;12.00;95.10
7411;DHT22;3747;48.628;9.058;2023-06-01T01:21:03;11.70;95.50
7411;DHT22;3747;48.628;9.058;2023-06-01T01:24:18;11.50;96.30
7411;DHT22;3747;48.628;9.058;2023-06-01T01:26:57;11.40;96.60
7411;DHT22;3747;48.628;9.058;2023-06-01T01:29:31;11.30;96.70
7411;DHT22;3747;48.628;9.058;2023-06-01T01:31:58;11.30;97.10
7411;DHT22;3747;48.628;9.058;2023-06-01T01:34:27;11.20;97.50
7411;DHT22;3747;48.628;9.058;2023-06-01T01:36:55;11.10;97.20
7411;DHT22;3747;48.628;9.058;2023-06-01T01:39:21;10.90;97.70
7411;DHT22;3747;48.628;9.058;2023-06-01T01:41:48;10.80;98.30
7411;DHT22;3747;48.628;9.058;2023-06-01T01:44:15;10.80;98.20
7411;DHT22;3747;48.628;9.058;2023-06-01T01:46:52;10.80;98.30
7411;DHT22;3747;48.628;9.058;2023-06-01T01:49:26;10.60;98.40
7411;DHT22;3747;48.628;9.058;2023-06-01T01:51:57;10.50;99.80
7411;DHT22;3747;48.628;9.058;2023-06-01T01:54:27;10.50;99.90
7411;DHT22;3747;48.628;9.058;2023-06-01T01:56:57;10.50;99.90
7411;DHT22;3747;48.628;9.058;2023-06-01T01:59:25;10.30;99.90
7411;DHT22;3747;48.628;9.058;2023-06-01T02:01:54;10.30;99.90
7411;DHT22;3747;48.628;9.058;2023-06-01T02:04:22;10.20;99.90
7411;DHT22;3747;48.628;9.058;2023-06-01T02:06:48;10.00;99.90
7411;DHT22;3747;48.628;9.058;2023-06-01T02:09:15;9.90;99.90
7411;DHT22;3747;48.628;9.058;2023-06-01T02:11:42;9.80;99.90
7411;DHT22;3747;48.628;9.058;2023-06-01T02:14:09;9.70;99.90
7411;DHT22;3747;48.628;9.058;2023-06-01T02:16:35;9.70;99.90
7411;DHT22;3747;48.628;9.058;2023-06-01T02:19:03;9.70;99.90
7411;DHT22;3747;48.628;9.058;2023-06-01T02:21:31;9.60;99.90
7411;DHT22;3747;48.628;9.058;2023-06-01T02:23:58;9.60;99.90
7411;DHT22;3747;48.628;9.058;2023-06-01T02:26:29;9.60;99.90
7411;DHT22;3747;48.628;9.058;2023-06-01T02:28:57;9.60;99.90
7411;DHT22;3747;48.628;9.058;2023-06-01T02:31:23;9.50;99.90
7411;DHT22;3747;48.628;9.058;2023-06-01T02:33:50;9.50;99.90
7411;DHT22;3747;48.628;9.058;2023-06-01T02:36:18;9.50;99.90
7411;DHT22;3747;48.628;9.058;2023-06-01T02:38:46;9.40;99.90
7411;DHT22;3747;48.628;9.058;2023-06-01T02:41:13;9.40;99.90
7411;DHT22;3747;48.628;9.058;2023-06-01T02:43:39;9.30;99.90
7411;DHT22;3747;48.628;9.058;2023-06-01T02:46:06;9.20;99.90
7411;DHT22;3747;48.628;9.058;2023-06-01T02:48:33;9.20;99.90
7411;DHT22;3747;48.628;9.058;2023-06-01T02:51:00;9.10;99.90
7411;DHT22;3747;48.628;9.058;2023-06-01T02:53:28;9.10;99.90
7411;DHT22;3747;48.628;9.058;2023-06-01T02:55:55;9.10;99.90
7411;DHT22;3747;48.628;9.058;2023-06-01T02:58:22;9.10;99.90
7411;DHT22;3747;48.628;9.058;2023-06-01T03:00:49;9.10;99.90
7411;DHT22;3747;48.628;9.058;2023-06-01T03:03:16;9.10;99.90
7411;DHT22;3747;48.628;9.058;2023-06-01T03:05:43;9.10;99.90
7411;DHT22;3747;48.628;9.058;2023-06-01T03:08:10;9.00;99.90
7411;DHT22;3747;48.628;9.058;2023-06-01T03:10:38;9.00;99.90
7411;DHT22;3747;48.628;9.058;2023-06-01T03:13:04;8.90;99.90
7411;DHT22;3747;48.628;9.058;2023-06-01T03:15:31;8.90;99.90
7411;DHT22;3747;48.628;9.058;2023-06-01T03:17:58;8.80;99.90
7411;DHT22;3747;48.628;9.058;2023-06-01T03:20:26;8.90;99.90
7411;DHT22;3747;48.628;9.058;2023-06-01T03:22:53;9.00;99.90
7411;DHT22;3747;48.628;9.058;2023-06-01T03:25:19;9.10;99.90
7411;DHT22;3747;48.628;9.058;2023-06-01T03:27:48;9.10;99.90
7411;DHT22;3747;48.628;9.058;2023-06-01T03:30:15;9.10;99.90
7411;DHT22;3747;48.628;9.058;2023-06-01T03:32:43;9.00;99.90
7411;DHT22;3747;48.628;9.058;2023-06-01T03:35:12;9.00;99.90
7411;DHT22;3747;48.628;9.058;2023-06-01T03:37:41;9.00;99.90
7411;DHT22;3747;48.628;9.058;2023-06-01T03:40:08;9.00;99.90
7411;DHT22;3747;48.628;9.058;2023-06-01T03:42:37;9.20;99.90
7411;DHT22;3747;48.628;9.058;2023-06-01T03:45:06;9.10;99.90
7411;DHT22;3747;48.628;9.058;2023-06-01T03:47:33;9.10;99.90
7411;DHT22;3747;48.628;9.058;2023-06-01T03:50:00;9.00;99.90
7411;DHT22;3747;48.628;9.058;2023-06-01T03:52:27;9.00;99.90
7411;DHT22;3747;48.628;9.058;2023-06-01T03:54:54;9.10;99.90
7411;DHT22;3747;48.628;9.058;2023-06-01T03:57:21;9.30;99.90
7411;DHT22;3747;48.628;9.058;2023-06-01T03:59:48;9.60;99.90
7411;DHT22;3747;48.628;9.058;2023-06-01T04:02:17;9.60;99.90
7411;DHT22;3747;48.628;9.058;2023-06-01T04:04:44;9.70;99.90
7411;DHT22;3747;48.628;9.058;2023-06-01T04:07:12;9.70;99.90
7411;DHT22;3747;48.628;9.058;2023-06-01T04:09:40;9.70;99.90
7411;DHT22;3747;48.628;9.058;2023-06-01T04:12:07;9.80;99.90
7411;DHT22;3747;48.628;9.058;2023-06-01T04:14:34;10.10;99.90
7411;DHT22;3747;48.628;9.058;2023-06-01T04:17:02;10.20;99.90
7411;DHT22;3747;48.628;9.058;2023-06-01T04:19:30;10.30;99.90
7411;DHT22;3747;48.628;9.058;2023-06-01T04:21:56;10.60;99.90
7411;DHT22;3747;48.628;9.058;2023-06-01T04:24:23;10.80;99.90
7411;DHT22;3747;48.628;9.058;2023-06-01T04:26:50;10.90;99.90
7411;DHT22;3747;48.628;9.058;2023-06-01T04:29:17;11.10;99.90
7411;DHT22;3747;48.628;9.058;2023-06-01T04:31:44;11.20;99.90
7411;DHT22;3747;48.628;9.058;2023-06-01T04:34:11;11.40;99.90
7411;DHT22;3747;48.628;9.058;2023-06-01T04:36:40;11.50;99.90
7411;DHT22;3747;48.628;9.058;2023-06-01T04:39:07;11.70;99.90
7411;DHT22;3747;48.628;9.058;2023-06-01T04:41:34;11.80;99.90
7411;DHT22;3747;48.628;9.058;2023-06-01T04:44:02;11.90;99.90
7411;DHT22;3747;48.628;9.058;2023-06-01T04:46:31;12.10;99.90
7411;DHT22;3747;48.628;9.058;2023-06-01T04:48:58;12.20;99.90
7411;DHT22;3747;48.628;9.058;2023-06-01T04:51:26;12.40;99.90
7411;DHT22;3747;48.628;9.058;2023-06-01T04:53:56;12.60;99.90
7411;DHT22;3747;48.628;9.058;2023-06-01T04:56:25;12.80;99.90
7411;DHT22;3747;48.628;9.058;2023-06-01T04:58:52;12.90;99.90
7411;DHT22;3747;48.628;9.058;2023-06-01T05:01:21;13.10;99.90
7411;DHT22;3747;48.628;9.058;2023-06-01T05:03:51;13.30;99.90
7411;DHT22;3747;48.628;9.058;2023-06-01T05:06:19;13.50;99.90
7411;DHT22;3747;48.628;9.058;2023-06-01T05:08:46;13.70;99.90
7411;DHT22;3747;48.628;9.058;2023-06-01T05:11:14;13.90;99.90
7411;DHT22;3747;48.628;9.058;2023-06-01T05:13:41;14.10;99.90
7411;DHT22;3747;48.628;9.058;2023-06-01T05:16:10;14.30;99.90
7411;DHT22;3747;48.628;9.058;2023-06-01T05:18:36;14.50;99.90
7411;DHT22;3747;48.628;9.058;2023-06-01T05:21:03;14.70;99.90
7411;DHT22;3747;48.628;9.058;2023-06-01T05:23:30;15.00;99.90
7411;DHT22;3747;48.628;9.058;2023-06-01T05:25:58;15.30;99.90
7411;DHT22;3747;48.628;9.058;2023-06-01T05:28:29;15.40;99.90
7411;DHT22;3747;48.628;9.058;2023-06-01T05:30:55;15.50;99.90
7411;DHT22;3747;48.628;9.058;2023-06-01T05:33:22;15.50;99.90
7411;DHT22;3747;48.628;9.058;2023-06-01T05:35:49;15.40;99.90
7411;DHT22;3747;48.628;9.058;2023-06-01T05:38:15;15.70;99.90
7411;DHT22;3747;48.628;9.058;2023-06-01T05:40:42;15.70;99.90
7411;DHT22;3747;48.628;9.058;2023-06-01T05:43:09;15.60;99.90
7411;DHT22;3747;48.628;9.058;2023-06-01T05:45:37;15.90;99.90
7411;DHT22;3747;48.628;9.058;2023-06-01T05:48:04;16.00;99.90
7411;DHT22;3747;48.628;9.058;2023-06-01T05:50:31;15.70;99.90
7411;DHT22;3747;48.628;9.058;2023-06-01T05:52:57;15.80;99.90
7411;DHT22;3747;48.628;9.058;2023-06-01T05:55:24;15.80;99.90
7411;DHT22;3747;48.628;9.058;2023-06-01T05:57:51;16.00;99.90
7411;DHT22;3747;48.628;9.058;2023-06-01T06:00:18;16.00;99.90
7411;DHT22;3747;48.628;9.058;2023-06-01T06:02:46;16.10;99.90
7411;DHT22;3747;48.628;9.058;2023-06-01T06:05:15;16.10;99.90
7411;DHT22;3747;48.628;9.058;2023-06-01T06:07:41;16.60;99.90
7411;DHT22;3747;48.628;9.058;2023-06-01T06:10:09;16.70;99.90
7411;DHT22;3747;48.628;9.058;2023-06-01T06:12:35;16.80;99.90
7411;DHT22;3747;48.628;9.058;2023-06-01T06:15:03;17.30;99.90
7411;DHT22;3747;48.628;9.058;2023-06-01T06:17:30;17.30;99.90
7411;DHT22;3747;48.628;9.058;2023-06-01T06:19:58;17.30;99.90
7411;DHT22;3747;48.628;9.058;2023-06-01T06:22:25;17.50;99.90
7411;DHT22;3747;48.628;9.058;2023-06-01T06:24:51;17.70;99.90
7411;DHT22;3747;48.628;9.058;2023-06-01T06:27:18;18.00;99.80
7411;DHT22;3747;48.628;9.058;2023-06-01T06:29:45;18.10;99.90
7411;DHT22;3747;48.628;9.058;2023-06-01T06:32:12;18.30;99.60
7411;DHT22;3747;48.628;9.058;2023-06-01T06:34:38;18.40;99.00
7411;DHT22;3747;48.628;9.058;2023-06-01T06:37:07;18.80;99.50
7411;DHT22;3747;48.628;9.058;2023-06-01T06:39:34;18.80;95.60
7411;DHT22;3747;48.628;9.058;2023-06-01T06:42:03;18.90;98.90
7411;DHT22;3747;48.628;9.058;2023-06-01T06:44:30;19.00;95.60
7411;DHT22;3747;48.628;9.058;2023-06-01T06:46:58;19.70;94.70
7411;DHT22;3747;48.628;9.058;2023-06-01T06:49:25;20.30;93.80
7411;DHT22;3747;48.628;9.058;2023-06-01T06:51:52;20.80;93.20
7411;DHT22;3747;48.628;9.058;2023-06-01T06:54:21;20.90;93.70
7411;DHT22;3747;48.628;9.058;2023-06-01T06:56:48;20.40;94.70
7411;DHT22;3747;48.628;9.058;2023-06-01T06:59:15;20.90;94.10
7411;DHT22;3747;48.628;9.058;2023-06-01T07:01:41;21.00;94.30
7411;DHT22;3747;48.628;9.058;2023-06-01T07:04:08;20.80;93.80
7411;DHT22;3747;48.628;9.058;2023-06-01T07:06:35;20.90;92.90
7411;DHT22;3747;48.628;9.058;2023-06-01T07:09:02;21.30;93.00
7411;DHT22;3747;48.628;9.058;2023-06-01T07:11:32;20.70;92.70
7411;DHT22;3747;48.628;9.058;2023-06-01T07:13:59;20.10;94.70
7411;DHT22;3747;48.628;9.058;2023-06-01T07:16:26;20.90;92.40
7411;DHT22;3747;48.628;9.058;2023-06-01T07:18:53;21.50;92.80
7411;DHT22;3747;48.628;9.058;2023-06-01T07:21:21;21.30;93.20
7411;DHT22;3747;48.628;9.058;2023-06-01T07:23:48;20.70;92.60
7411;DHT22;3747;48.628;9.058;2023-06-01T07:26:15;20.70;95.00
7411;DHT22;3747;48.628;9.058;2023-06-01T07:28:43;20.70;94.20
7411;DHT22;3747;48.628;9.058;2023-06-01T07:31:18;20.80;94.20
7411;DHT22;3747;48.628;9.058;2023-06-01T07:33:45;21.60;93.90
7411;DHT22;3747;48.628;9.058;2023-06-01T07:36:11;21.50;95.00
7411;DHT22;3747;48.628;9.058;2023-06-01T07:38:39;21.10;95.80
7411;DHT22;3747;48.628;9.058;2023-06-01T07:41:08;21.00;96.20
7411;DHT22;3747;48.628;9.058;2023-06-01T07:43:36;21.10;95.10
7411;DHT22;3747;48.628;9.058;2023-06-01T07:46:04;21.40;94.50
7411;DHT22;3747;48.628;9.058;2023-06-01T07:48:31;21.30;94.00
7411;DHT22;3747;48.628;9.058;2023-06-01T07:51:01;22.10;94.70
7411;DHT22;3747;48.628;9.058;2023-06-01T07:53:28;22.00;93.90
7411;DHT22;3747;48.628;9.058;2023-06-01T07:55:58;22.90;92.40
7411;DHT22;3747;48.628;9.058;2023-06-01T07:58:24;22.60;94.40
7411;DHT22;3747;48.628;9.058;2023-06-01T08:00:51;22.80;94.00
7411;DHT22;3747;48.628;9.058;2023-06-01T08:03:20;23.20;91.70
7411;DHT22;3747;48.628;9.058;2023-06-01T08:06:09;23.60;90.80
7411;DHT22;3747;48.628;9.058;2023-06-01T08:08:36;24.30;92.10
7411;DHT22;3747;48.628;9.058;2023-06-01T08:11:03;23.70;90.60
7411;DHT22;3747;48.628;9.058;2023-06-01T08:13:30;23.70;92.60
7411;DHT22;3747;48.628;9.058;2023-06-01T08:15:59;23.50;92.40
7411;DHT22;3747;48.628;9.058;2023-06-01T08:18:27;23.20;92.60
7411;DHT22;3747;48.628;9.058;2023-06-01T08:20:54;22.70;93.80
7411;DHT22;3747;48.628;9.058;2023-06-01T08:23:21;23.20;93.80
7411;DHT22;3747;48.628;9.058;2023-06-01T08:25:48;22.50;95.50
7411;DHT22;3747;48.628;9.058;2023-06-01T08:28:15;22.60;95.60
7411;DHT22;3747;48.628;9.058;2023-06-01T08:30:42;22.90;94.90
7411;DHT22;3747;48.628;9.058;2023-06-01T08:33:08;23.10;92.30
7411;DHT22;3747;48.628;9.058;2023-06-01T08:35:36;23.10;92.10
7411;DHT22;3747;48.628;9.058;2023-06-01T08:38:03;23.10;92.20
7411;DHT22;3747;48.628;9.058;2023-06-01T08:40:30;23.50;95.30
7411;DHT22;3747;48.628;9.058;2023-06-01T08:42:58;24.70;89.50
7411;DHT22;3747;48.628;9.058;2023-06-01T08:45:26;25.40;89.50
7411;DHT22;3747;48.628;9.058;2023-06-01T08:47:55;25.40;86.70
7411;DHT22;3747;48.628;9.058;2023-06-01T08:50:26;25.40;87.90
7411;DHT22;3747;48.628;9.058;2023-06-01T08:52:56;25.80;84.50
7411;DHT22;3747;48.628;9.058;2023-06-01T08:55:23;25.40;87.10
7411;DHT22;3747;48.628;9.058;2023-06-01T08:57:50;25.40;89.50
7411;DHT22;3747;48.628;9.058;2023-06-01T09:00:18;24.90;88.90
7411;DHT22;3747;48.628;9.058;2023-06-01T09:02:45;24.60;89.60
7411;DHT22;3747;48.628;9.058;2023-06-01T09:05:12;24.90;85.00
7411;DHT22;3747;48.628;9.058;2023-06-01T09:07:39;25.80;87.20
7411;DHT22;3747;48.628;9.058;2023-06-01T09:10:08;26.30;88.90
7411;DHT22;3747;48.628;9.058;2023-06-01T09:12:37;25.80;85.60
7411;DHT22;3747;48.628;9.058;2023-06-01T09:15:11;25.70;86.40
7411;DHT22;3747;48.628;9.058;2023-06-01T09:17:38;26.00;85.00
7411;DHT22;3747;48.628;9.058;2023-06-01T09:20:09;25.50;86.30
7411;DHT22;3747;48.628;9.058;2023-06-01T09:22:41;25.90;85.70
7411;DHT22;3747;48.628;9.058;2023-06-01T09:25:10;25.70;91.90
7411;DHT22;3747;48.628;9.058;2023-06-01T09:27:48;26.30;83.90
7411;DHT22;3747;48.628;9.058;2023-06-01T09:30:16;27.40;83.20
7411;DHT22;3747;48.628;9.058;2023-06-01T09:32:43;27.70;85.50
7411;DHT22;3747;48.628;9.058;2023-06-01T09:35:13;28.70;80.10
7411;DHT22;3747;48.628;9.058;2023-06-01T09:37:53;28.80;75.40
7411;DHT22;3747;48.628;9.058;2023-06-01T09:40:22;27.90;77.10
7411;DHT22;3747;48.628;9.058;2023-06-01T09:42:48;28.30;79.20
7411;DHT22;3747;48.628;9.058;2023-06-01T09:45:17;27.60;85.80
7411;DHT22;3747;48.628;9.058;2023-06-01T09:47:44;28.10;76.00
7411;DHT22;3747;48.628;9.058;2023-06-01T09:50:12;28.40;80.80
7411;DHT22;3747;48.628;9.058;2023-06-01T09:52:57;28.30;75.30
7411;DHT22;3747;48.628;9.058;2023-06-01T09:55:25;28.30;74.60
7411;DHT22;3747;48.628;9.058;2023-06-01T09:57:52;28.10;80.60
7411;DHT22;3747;48.628;9.058;2023-06-01T10:00:22;28.50;75.60
7411;DHT22;3747;48.628;9.058;2023-06-01T10:02:50;28.40;75.60
7411;DHT22;3747;48.628;9.058;2023-06-01T10:05:18;28.50;73.00
7411;DHT22;3747;48.628;9.058;2023-06-01T10:07:46;28.40;72.80
7411;DHT22;3747;48.628;9.058;2023-06-01T10:10:14;27.90;76.10
7411;DHT22;3747;48.628;9.058;2023-06-01T10:12:44;28.30;74.00
7411;DHT22;3747;48.628;9.058;2023-06-01T10:15:11;28.40;69.70
7411;DHT22;3747;48.628;9.058;2023-06-01T10:17:39;28.80;70.30
7411;DHT22;3747;48.628;9.058;2023-06-01T10:20:09;29.20;72.30
7411;DHT22;3747;48.628;9.058;2023-06-01T10:22:39;28.60;72.40
7411;DHT22;3747;48.628;9.058;2023-06-01T10:25:10;28.50;68.90
7411;DHT22;3747;48.628;9.058;2023-06-01T10:27:39;28.90;68.50
7411;DHT22;3747;48.628;9.058;2023-06-01T10:30:10;29.20;70.80
7411;DHT22;3747;48.628;9.058;2023-06-01T10:32:45;29.20;69.90
7411;DHT22;3747;48.628;9.058;2023-06-01T10:38:30;29.10;64.20
7411;DHT22;3747;48.628;9.058;2023-06-01T10:41:28;29.90;65.00
7411;DHT22;3747;48.628;9.058;2023-06-01T10:43:56;29.10;65.80
7411;DHT22;3747;48.628;9.058;2023-06-01T10:46:41;29.10;66.00
7411;DHT22;3747;48.628;9.058;2023-06-01T10:49:08;29.30;61.60
7411;DHT22;3747;48.628;9.058;2023-06-01T10:51:35;29.20;68.20
7411;DHT22;3747;48.628;9.058;2023-06-01T10:57:24;29.30;67.70
7411;DHT22;3747;48.628;9.058;2023-06-01T11:00:10;29.60;62.90
7411;DHT22;3747;48.628;9.058;2023-06-01T11:02:54;29.50;60.20
7411;DHT22;3747;48.628;9.058;2023-06-01T11:08:52;30.70;58.70
7411;DHT22;3747;48.628;9.058;2023-06-01T11:11:20;30.10;59.00
7411;DHT22;3747;48.628;9.058;2023-06-01T11:14:05;30.50;57.60
7411;DHT22;3747;48.628;9.058;2023-06-01T11:16:32;30.70;56.00
7411;DHT22;3747;48.628;9.058;2023-06-01T11:19:04;30.10;66.30
7411;DHT22;3747;48.628;9.058;2023-06-01T11:21:34;29.20;63.30
7411;DHT22;3747;48.628;9.058;2023-06-01T11:24:05;29.20;60.80
7411;DHT22;3747;48.628;9.058;2023-06-01T11:26:34;29.80;60.70
7411;DHT22;3747;48.628;9.058;2023-06-01T11:29:07;30.40;57.90
7411;DHT22;3747;48.628;9.058;2023-06-01T11:31:36;31.20;54.30
7411;DHT22;3747;48.628;9.058;2023-06-01T11:34:14;31.60;55.20
7411;DHT22;3747;48.628;9.058;2023-06-01T11:36:45;31.40;57.60
7411;DHT22;3747;48.628;9.058;2023-06-01T11:39:20;31.70;57.00
7411;DHT22;3747;48.628;9.058;2023-06-01T11:41:49;31.10;54.30
7411;DHT22;3747;48.628;9.058;2023-06-01T11:44:16;30.80;54.10
7411;DHT22;3747;48.628;9.058;2023-06-01T11:46:53;31.00;54.20
7411;DHT22;3747;48.628;9.058;2023-06-01T11:49:22;31.30;54.70
7411;DHT22;3747;48.628;9.058;2023-06-01T11:51:49;31.40;53.10
7411;DHT22;3747;48.628;9.058;2023-06-01T11:54:22;31.20;53.00
7411;DHT22;3747;48.628;9.058;2023-06-01T11:56:49;32.00;52.60
7411;DHT22;3747;48.628;9.058;2023-06-01T11:59:17;32.70;54.50
7411;DHT22;3747;48.628;9.058;2023-06-01T12:01:48;32.80;51.30
7411;DHT22;3747;48.628;9.058;2023-06-01T12:04:16;32.80;50.50
7411;DHT22;3747;48.628;9.058;2023-06-01T12:06:46;32.70;48.90
7411;DHT22;3747;48.628;9.058;2023-06-01T12:09:13;33.10;53.70
7411;DHT22;3747;48.628;9.058;2023-06-01T12:11:41;32.30;53.90
7411;DHT22;3747;48.628;9.058;2023-06-01T12:14:10;31.80;52.40
7411;DHT22;3747;48.628;9.058;2023-06-01T12:16:57;31.30;54.10
7411;DHT22;3747;48.628;9.058;2023-06-01T12:19:24;31.60;53.80
7411;DHT22;3747;48.628;9.058;2023-06-01T12:22:08;31.90;52.50
7411;DHT22;3747;48.628;9.058;2023-06-01T12:24:35;31.60;53.40
7411;DHT22;3747;48.628;9.058;2023-06-01T12:27:03;31.80;52.30
7411;DHT22;3747;48.628;9.058;2023-06-01T12:29:40;32.60;51.80
7411;DHT22;3747;48.628;9.058;2023-06-01T12:32:07;31.60;51.40
7411;DHT22;3747;48.628;9.058;2023-06-01T12:35:01;31.80;55.80
7411;DHT22;3747;48.628;9.058;2023-06-01T12:37:29;32.60;51.60
7411;DHT22;3747;48.628;9.058;2023-06-01T12:39:56;32.00;53.30
7411;DHT22;3747;48.628;9.058;2023-06-01T12:42:34;32.10;54.80
7411;DHT22;3747;48.628;9.058;2023-06-01T12:45:02;32.70;52.50
7411;DHT22;3747;48.628;9.058;2023-06-01T12:47:35;33.40;48.80
7411;DHT22;3747;48.628;9.058;2023-06-01T12:50:03;33.90;45.90
7411;DHT22;3747;48.628;9.058;2023-06-01T12:52:31;34.10;45.90
7411;DHT22;3747;48.628;9.058;2023-06-01T12:54:58;34.00;44.20
7411;DHT22;3747;48.628;9.058;2023-06-01T12:57:25;33.30;46.50
7411;DHT22;3747;48.628;9.058;2023-06-01T12:59:52;32.00;48.60
7411;DHT22;3747;48.628;9.058;2023-06-01T13:02:19;31.60;49.50
7411;DHT22;3747;48.628;9.058;2023-06-01T13:04:46;31.90;54.80
7411;DHT22;3747;48.628;9.058;2023-06-01T13:07:12;32.40;50.00
7411;DHT22;3747;48.628;9.058;2023-06-01T13:09:40;32.60;49.30
7411;DHT22;3747;48.628;9.058;2023-06-01T13:12:08;33.00;49.00
7411;DHT22;3747;48.628;9.058;2023-06-01T13:14:34;33.20;49.30
7411;DHT22;3747;48.628;9.058;2023-06-01T13:17:01;33.80;48.10
7411;DHT22;3747;48.628;9.058;2023-06-01T13:19:28;34.00;46.70
7411;DHT22;3747;48.628;9.058;2023-06-01T13:21:55;33.60;47.90
7411;DHT22;3747;48.628;9.058;2023-06-01T13:24:22;33.60;47.50
7411;DHT22;3747;48.628;9.058;2023-06-01T13:26:51;33.10;47.90
7411;DHT22;3747;48.628;9.058;2023-06-01T13:29:17;32.20;51.40
7411;DHT22;3747;48.628;9.058;2023-06-01T13:31:44;31.60;49.40
7411;DHT22;3747;48.628;9.058;2023-06-01T13:34:11;31.20;54.40
7411;DHT22;3747;48.628;9.058;2023-06-01T13:36:38;31.00;51.40
7411;DHT22;3747;48.628;9.058;2023-06-01T13:39:04;30.80;48.50
7411;DHT22;3747;48.628;9.058;2023-06-01T13:41:31;31.30;50.50
7411;DHT22;3747;48.628;9.058;2023-06-01T13:43:59;31.30;51.20
7411;DHT22;3747;48.628;9.058;2023-06-01T13:46:26;31.60;50.40
7411;DHT22;3747;48.628;9.058;2023-06-01T13:49:07;31.10;55.50
7411;DHT22;3747;48.628;9.058;2023-06-01T13:51:34;32.80;48.30
7411;DHT22;3747;48.628;9.058;2023-06-01T13:54:03;33.40;48.20
7411;DHT22;3747;48.628;9.058;2023-06-01T13:56:31;33.60;46.30
7411;DHT22;3747;48.628;9.058;2023-06-01T13:58:59;34.00;49.10
7411;DHT22;3747;48.628;9.058;2023-06-01T14:01:26;34.20;45.30
7411;DHT22;3747;48.628;9.058;2023-06-01T14:03:53;33.50;47.20
7411;DHT22;3747;48.628;9.058;2023-06-01T14:06:20;33.10;49.20
7411;DHT22;3747;48.628;9.058;2023-06-01T14:08:47;32.90;51.80
7411;DHT22;3747;48.628;9.058;2023-06-01T14:11:14;32.90;53.20
7411;DHT22;3747;48.628;9.058;2023-06-01T14:13:40;32.00;48.70
7411;DHT22;3747;48.628;9.058;2023-06-01T14:16:08;30.70;54.00
7411;DHT22;3747;48.628;9.058;2023-06-01T14:18:35;30.40;51.30
7411;DHT22;3747;48.628;9.058;2023-06-01T14:21:02;30.40;52.90
7411;DHT22;3747;48.628;9.058;2023-06-01T14:23:29;29.40;53.90
7411;DHT22;3747;48.628;9.058;2023-06-01T14:25:55;29.70;54.80
7411;DHT22;3747;48.628;9.058;2023-06-01T14:28:45;29.90;57.30
7411;DHT22;3747;48.628;9.058;2023-06-01T14:31:13;29.50;56.00
7411;DHT22;3747;48.628;9.058;2023-06-01T14:33:40;29.50;55.90
7411;DHT22;3747;48.628;9.058;2023-06-01T14:36:06;29.90;54.40
7411;DHT22;3747;48.628;9.058;2023-06-01T14:38:33;30.00;55.80
7411;DHT22;3747;48.628;9.058;2023-06-01T14:41:06;29.70;57.60
7411;DHT22;3747;48.628;9.058;2023-06-01T14:43:33;29.10;57.10
7411;DHT22;3747;48.628;9.058;2023-06-01T14:46:00;28.50;57.30
7411;DHT22;3747;48.628;9.058;2023-06-01T14:48:28;28.20;57.20
7411;DHT22;3747;48.628;9.058;2023-06-01T14:50:55;28.20;59.90
7411;DHT22;3747;48.628;9.058;2023-06-01T14:53:22;28.60;55.70
7411;DHT22;3747;48.628;9.058;2023-06-01T14:55:48;29.10;56.80
7411;DHT22;3747;48.628;9.058;2023-06-01T14:58:15;29.20;58.90
7411;DHT22;3747;48.628;9.058;2023-06-01T15:00:42;29.60;53.40
7411;DHT22;3747;48.628;9.058;2023-06-01T15:03:08;30.10;56.30
7411;DHT22;3747;48.628;9.058;2023-06-01T15:05:37;30.40;55.30
7411;DHT22;3747;48.628;9.058;2023-06-01T15:08:08;31.50;51.10
7411;DHT22;3747;48.628;9.058;2023-06-01T15:10:35;32.50;51.00
7411;DHT22;3747;48.628;9.058;2023-06-01T15:13:02;32.60;49.00
7411;DHT22;3747;48.628;9.058;2023-06-01T15:15:44;32.90;49.30
7411;DHT22;3747;48.628;9.058;2023-06-01T15:18:11;32.60;49.80
7411;DHT22;3747;48.628;9.058;2023-06-01T15:20:39;32.00;50.30
7411;DHT22;3747;48.628;9.058;2023-06-01T15:23:05;31.30;54.40
7411;DHT22;3747;48.628;9.058;2023-06-01T15:25:32;31.40;48.50
7411;DHT22;3747;48.628;9.058;2023-06-01T15:28:06;31.80;51.20
7411;DHT22;3747;48.628;9.058;2023-06-01T15:30:33;31.80;56.20
7411;DHT22;3747;48.628;9.058;2023-06-01T15:33:00;31.70;54.70
7411;DHT22;3747;48.628;9.058;2023-06-01T15:35:27;32.20;52.90
7411;DHT22;3747;48.628;9.058;2023-06-01T15:37:55;31.80;51.50
7411;DHT22;3747;48.628;9.058;2023-06-01T15:40:22;31.90;56.00
7411;DHT22;3747;48.628;9.058;2023-06-01T15:42:49;32.00;50.30
7411;DHT22;3747;48.628;9.058;2023-06-01T15:45:15;32.10;50.30
7411;DHT22;3747;48.628;9.058;2023-06-01T15:47:42;31.80;49.40
7411;DHT22;3747;48.628;9.058;2023-06-01T15:50:09;31.50;49.30
7411;DHT22;3747;48.628;9.058;2023-06-01T15:52:36;32.00;50.50
7411;DHT22;3747;48.628;9.058;2023-06-01T15:55:05;31.50;50.10
7411;DHT22;3747;48.628;9.058;2023-06-01T15:57:33;30.50;50.20
7411;DHT22;3747;48.628;9.058;2023-06-01T16:00:00;30.20;51.70
7411;DHT22;3747;48.628;9.058;2023-06-01T16:02:27;29.70;49.10
7411;DHT22;3747;48.628;9.058;2023-06-01T16:04:54;29.90;52.20
7411;DHT22;3747;48.628;9.058;2023-06-01T16:07:20;30.30;49.70
7411;DHT22;3747;48.628;9.058;2023-06-01T16:09:47;30.70;50.00
7411;DHT22;3747;48.628;9.058;2023-06-01T16:12:15;30.50;50.00
7411;DHT22;3747;48.628;9.058;2023-06-01T16:14:42;29.60;49.30
7411;DHT22;3747;48.628;9.058;2023-06-01T16:17:11;29.40;51.30
7411;DHT22;3747;48.628;9.058;2023-06-01T16:19:40;29.70;49.30
7411;DHT22;3747;48.628;9.058;2023-06-01T16:22:07;29.40;52.00
7411;DHT22;3747;48.628;9.058;2023-06-01T16:24:34;29.40;53.10